createdAt,value
2023-03-11T00:00:46.741Z,0.10
2023-03-11T00:01:27.467Z,0.10
2023-03-11T00:02:07.319Z,0.10
2023-03-11T00:02:47.376Z,0.10
2023-03-11T00:03:31.280Z,0.10
2023-03-11T00:04:11.806Z,0.09
2023-03-11T00:04:52.374Z,0.06
2023-03-11T00:05:42.552Z,0.06
2023-03-11T00:06:23.311Z,0.10
2023-03-11T00:07:03.374Z,0.10
2023-03-11T00:07:46.297Z,0.10
2023-03-11T00:08:29.395Z,0.10
2023-03-11T00:09:11.297Z,0.10
2023-03-11T00:09:51.377Z,0.07
2023-03-11T00:10:38.304Z,0.10
2023-03-11T00:11:19.796Z,0.10
2023-03-11T00:11:59.309Z,0.10
2023-03-11T00:12:39.355Z,0.10
2023-03-11T00:13:22.273Z,0.10
2023-03-11T00:14:02.402Z,0.10
2023-03-11T00:14:43.276Z,0.09
2023-03-11T00:15:23.404Z,0.06
2023-03-11T00:16:04.273Z,0.04
2023-03-11T00:16:44.408Z,0.10
2023-03-11T00:17:25.309Z,0.10
2023-03-11T00:18:05.424Z,0.10
2023-03-11T00:18:45.251Z,0.06
2023-03-11T00:19:25.384Z,0.04
2023-03-11T00:20:06.252Z,0.06
2023-03-11T00:20:50.370Z,0.04
2023-03-11T00:21:30.320Z,0.09
2023-03-11T00:22:10.375Z,0.06
2023-03-11T00:22:51.337Z,0.04
2023-03-11T00:23:35.545Z,0.06
2023-03-11T00:24:16.266Z,0.05
2023-03-11T00:24:56.394Z,0.08
2023-03-11T00:25:39.268Z,0.06
2023-03-11T00:26:19.399Z,0.01
2023-03-11T00:27:00.275Z,0.04
2023-03-11T00:27:40.375Z,0.10
2023-03-11T00:28:22.294Z,0.06
2023-03-11T00:29:02.371Z,0.04
2023-03-11T00:29:43.284Z,0.10
2023-03-11T00:30:24.374Z,0.10
2023-03-11T00:31:05.289Z,0.10
2023-03-11T00:31:45.335Z,0.06
2023-03-11T00:32:25.292Z,0.10
2023-03-11T00:33:06.349Z,0.00
2023-03-11T00:33:47.333Z,0.04
2023-03-11T00:34:27.360Z,0.10
2023-03-11T00:35:08.257Z,0.10
2023-03-11T00:35:50.428Z,0.10
2023-03-11T00:36:40.269Z,0.10
2023-03-11T00:37:20.372Z,0.10
2023-03-11T00:38:06.306Z,0.06
2023-03-11T00:38:54.342Z,0.09
2023-03-11T00:39:48.250Z,0.00
2023-03-11T00:40:45.274Z,0.10
2023-03-11T00:41:39.292Z,0.07
2023-03-11T00:42:33.251Z,0.10
2023-03-11T00:43:28.304Z,0.10
2023-03-11T00:44:15.267Z,0.10
2023-03-11T00:44:49.384Z,0.10
2023-03-11T00:45:37.255Z,0.10
2023-03-11T00:46:11.401Z,0.10
2023-03-11T00:46:58.261Z,0.10
2023-03-11T00:47:32.337Z,0.10
2023-03-11T00:48:21.250Z,0.05
2023-03-11T00:48:58.429Z,0.10
2023-03-11T00:49:39.276Z,0.10
2023-03-11T00:50:29.366Z,0.10
2023-03-11T00:51:10.264Z,0.09
2023-03-11T00:51:51.338Z,0.08
2023-03-11T00:52:31.240Z,0.04
2023-03-11T00:53:12.476Z,0.00
2023-03-11T00:53:53.261Z,0.04
2023-03-11T00:54:33.341Z,0.10
2023-03-11T00:55:14.264Z,0.10
2023-03-11T00:55:54.333Z,0.03
2023-03-11T00:56:35.233Z,0.00
2023-03-11T00:57:15.353Z,0.06
2023-03-11T00:58:00.269Z,0.10
2023-03-11T00:58:40.638Z,0.10
2023-03-11T00:59:21.219Z,0.10
2023-03-11T01:00:02.373Z,0.09
2023-03-11T01:00:43.250Z,0.05
2023-03-11T01:01:26.411Z,0.10
2023-03-11T01:02:06.243Z,0.10
2023-03-11T01:02:46.342Z,0.08
2023-03-11T01:03:27.227Z,0.04
2023-03-11T01:04:07.332Z,0.08
2023-03-11T01:04:48.285Z,0.10
2023-03-11T01:05:32.427Z,0.09
2023-03-11T01:06:13.261Z,0.10
2023-03-11T01:06:53.329Z,0.06
2023-03-11T01:07:34.233Z,0.04
2023-03-11T01:08:14.352Z,0.10
2023-03-11T01:08:54.220Z,0.06
2023-03-11T01:09:34.304Z,0.05
2023-03-11T01:10:17.255Z,0.04
2023-03-11T01:10:57.325Z,0.00
2023-03-11T01:11:39.244Z,0.01
2023-03-11T01:12:19.367Z,0.04
2023-03-11T01:13:00.275Z,0.10
2023-03-11T01:13:41.328Z,0.05
2023-03-11T01:14:22.221Z,0.05
2023-03-11T01:15:02.332Z,0.10
2023-03-11T01:15:44.277Z,0.06
2023-03-11T01:16:24.425Z,0.00
2023-03-11T01:17:05.239Z,0.09
2023-03-11T01:17:45.572Z,0.00
2023-03-11T01:18:27.225Z,0.04
2023-03-11T01:19:07.524Z,0.10
2023-03-11T01:19:48.214Z,0.10
2023-03-11T01:20:28.335Z,0.10
2023-03-11T01:21:09.254Z,0.00
2023-03-11T01:21:49.314Z,0.08
2023-03-11T01:22:30.236Z,0.10
2023-03-11T01:23:11.289Z,0.06
2023-03-11T01:23:52.195Z,0.00
2023-03-11T01:24:32.334Z,0.09
2023-03-11T01:25:13.208Z,0.10
2023-03-11T01:25:53.333Z,0.09
2023-03-11T01:26:35.252Z,0.06
2023-03-11T01:27:15.349Z,0.06
2023-03-11T01:27:56.225Z,0.00
2023-03-11T01:28:36.364Z,0.10
2023-03-11T01:29:16.192Z,0.10
2023-03-11T01:29:56.376Z,0.10
2023-03-11T01:30:37.225Z,0.10
2023-03-11T01:31:18.358Z,0.10
2023-03-11T01:31:59.181Z,0.09
2023-03-11T01:32:39.436Z,0.06
2023-03-11T01:33:26.249Z,0.04
2023-03-11T01:34:06.319Z,0.10
2023-03-11T01:34:47.214Z,0.10
2023-03-11T01:35:30.349Z,0.06
2023-03-11T01:36:12.234Z,0.01
2023-03-11T01:36:52.300Z,0.06
2023-03-11T01:37:33.175Z,0.00
2023-03-11T01:38:13.313Z,0.04
2023-03-11T01:38:53.259Z,0.06
2023-03-11T01:39:33.321Z,0.06
2023-03-11T01:40:20.206Z,0.10
2023-03-11T01:41:00.351Z,0.09
2023-03-11T01:41:41.200Z,0.04
2023-03-11T01:42:21.296Z,0.10
2023-03-11T01:43:02.184Z,0.06
2023-03-11T01:44:08.207Z,0.06
2023-03-11T01:45:02.232Z,0.10
2023-03-11T01:46:05.231Z,0.10
2023-03-11T01:47:08.209Z,0.06
2023-03-11T01:48:02.228Z,0.00
2023-03-11T01:49:08.227Z,0.05
2023-03-11T01:50:03.208Z,0.10
2023-03-11T01:51:02.188Z,0.10
2023-03-11T01:52:00.188Z,0.10
2023-03-11T01:52:55.224Z,0.10
2023-03-11T01:53:49.195Z,0.06
2023-03-11T01:54:38.227Z,0.06
2023-03-11T01:55:20.287Z,0.10
2023-03-11T01:56:01.172Z,0.06
2023-03-11T01:56:42.287Z,0.00
2023-03-11T01:57:23.145Z,0.04
2023-03-11T01:58:04.293Z,0.10
2023-03-11T01:58:46.187Z,0.10
2023-03-11T01:59:31.308Z,0.10
2023-03-11T02:00:17.190Z,0.07
2023-03-11T02:00:57.265Z,0.00
2023-03-11T02:01:38.218Z,0.00
2023-03-11T02:02:39.286Z,0.04
2023-03-11T02:03:31.170Z,0.08
2023-03-11T02:04:11.245Z,0.10
2023-03-11T02:04:52.195Z,0.09
2023-03-11T02:05:33.200Z,0.10
2023-03-11T02:06:10.348Z,0.05
2023-03-11T02:06:58.194Z,0.04
2023-03-11T02:07:32.259Z,0.10
2023-03-11T02:08:19.151Z,0.09
2023-03-11T02:08:53.236Z,0.03
2023-03-11T02:09:40.145Z,0.00
2023-03-11T02:10:16.285Z,0.00
2023-03-11T02:10:59.190Z,0.04
2023-03-11T02:11:39.285Z,0.10
2023-03-11T02:12:22.166Z,0.10
2023-03-11T02:13:03.750Z,0.00
2023-03-11T02:13:46.169Z,0.04
2023-03-11T02:14:26.330Z,0.10
2023-03-11T02:15:07.185Z,0.06
2023-03-11T02:15:47.299Z,0.09
2023-03-11T02:16:27.232Z,0.10
2023-03-11T02:17:08.256Z,0.08
2023-03-11T02:17:49.194Z,0.10
2023-03-11T02:18:29.328Z,0.10
2023-03-11T02:19:41.228Z,0.08
2023-03-11T02:21:04.252Z,0.06
2023-03-11T02:21:44.179Z,0.10
2023-03-11T02:22:24.279Z,0.06
2023-03-11T02:23:05.136Z,0.05
2023-03-11T02:24:21.296Z,0.10
2023-03-11T02:25:47.160Z,0.09
2023-03-11T02:26:38.265Z,0.04
2023-03-11T02:27:21.180Z,0.10
2023-03-11T02:28:02.265Z,0.06
2023-03-11T02:28:43.223Z,0.01
2023-03-11T02:29:25.265Z,0.10
2023-03-11T02:30:06.137Z,0.10
2023-03-11T02:30:50.514Z,0.06
2023-03-11T02:31:31.234Z,0.04
2023-03-11T02:32:16.268Z,0.05
2023-03-11T02:32:57.192Z,0.09
2023-03-11T02:33:39.499Z,0.08
2023-03-11T02:34:28.139Z,0.06
2023-03-11T02:35:08.240Z,0.04
2023-03-11T02:35:48.187Z,0.06
2023-03-11T02:36:47.299Z,0.00
2023-03-11T02:37:28.146Z,0.08
2023-03-11T02:38:15.189Z,0.04
2023-03-11T02:39:09.136Z,0.01
2023-03-11T02:40:07.170Z,0.04
2023-03-11T02:41:22.120Z,0.10
2023-03-11T02:42:29.161Z,0.06
2023-03-11T02:43:27.218Z,0.00
2023-03-11T02:44:25.136Z,0.00
2023-03-11T02:45:27.136Z,0.04
2023-03-11T02:46:22.128Z,0.03
2023-03-11T02:47:17.124Z,0.04
2023-03-11T02:48:12.139Z,0.08
2023-03-11T02:48:53.138Z,0.03
2023-03-11T02:49:33.233Z,0.04
2023-03-11T02:50:18.157Z,0.06
2023-03-11T02:50:59.238Z,0.03
2023-03-11T02:51:40.133Z,0.10
2023-03-11T02:52:20.211Z,0.00
2023-03-11T02:53:00.118Z,0.01
2023-03-11T02:53:46.223Z,0.00
2023-03-11T02:54:27.163Z,0.00
2023-03-11T02:55:07.224Z,0.01
2023-03-11T02:55:47.107Z,0.06
2023-03-11T02:56:27.253Z,0.03
2023-03-11T02:57:08.129Z,0.00
2023-03-11T02:57:49.235Z,0.00
2023-03-11T02:58:30.120Z,0.00
2023-03-11T02:59:10.243Z,0.04
2023-03-11T02:59:51.150Z,0.06
2023-03-11T03:00:32.187Z,0.00
2023-03-11T03:01:13.186Z,0.06
2023-03-11T03:01:53.215Z,0.00
2023-03-11T03:02:35.106Z,0.01
2023-03-11T03:03:15.837Z,0.00
2023-03-11T03:03:57.195Z,0.00
2023-03-11T03:04:37.285Z,0.00
2023-03-11T03:05:18.139Z,0.04
2023-03-11T03:05:58.268Z,0.05
2023-03-11T03:06:39.116Z,0.03
2023-03-11T03:07:19.211Z,0.04
2023-03-11T03:08:00.109Z,0.06
2023-03-11T03:08:40.185Z,0.00
2023-03-11T03:09:20.085Z,0.03
2023-03-11T03:10:00.231Z,0.05
2023-03-11T03:10:41.139Z,0.00
2023-03-11T03:11:21.224Z,0.00
2023-03-11T03:12:01.123Z,0.00
2023-03-11T03:12:41.196Z,0.01
2023-03-11T03:13:22.109Z,0.00
2023-03-11T03:14:02.237Z,0.00
2023-03-11T03:14:44.098Z,0.00
2023-03-11T03:15:24.190Z,0.04
2023-03-11T03:16:05.192Z,0.06
2023-03-11T03:16:45.303Z,0.04
2023-03-11T03:17:26.144Z,0.06
2023-03-11T03:18:06.207Z,0.00
2023-03-11T03:18:47.096Z,0.03
2023-03-11T03:19:27.212Z,0.10
2023-03-11T03:20:08.106Z,0.04
2023-03-11T03:20:48.205Z,0.01
2023-03-11T03:21:28.136Z,0.10
2023-03-11T03:22:08.167Z,0.10
2023-03-11T03:22:49.107Z,0.06
2023-03-11T03:23:29.183Z,0.00
2023-03-11T03:24:10.102Z,0.00
2023-03-11T03:24:50.164Z,0.04
2023-03-11T03:25:31.100Z,0.04
2023-03-11T03:26:13.693Z,0.00
2023-03-11T03:26:55.104Z,0.00
2023-03-11T03:27:35.211Z,0.00
2023-03-11T03:28:16.084Z,0.00
2023-03-11T03:28:56.164Z,0.00
2023-03-11T03:29:37.094Z,0.00
2023-03-11T03:30:18.193Z,0.00
2023-03-11T03:30:59.088Z,0.00
2023-03-11T03:31:39.318Z,0.04
2023-03-11T03:32:19.156Z,0.06
2023-03-11T03:32:59.675Z,0.04
2023-03-11T03:33:41.067Z,0.04
2023-03-11T03:34:21.163Z,0.06
2023-03-11T03:35:05.077Z,0.00
2023-03-11T03:35:50.239Z,0.00
2023-03-11T03:36:31.079Z,0.00
2023-03-11T03:37:11.183Z,0.00
2023-03-11T03:37:51.094Z,0.00
2023-03-11T03:38:31.160Z,0.00
2023-03-11T03:39:13.072Z,0.00
2023-03-11T03:39:53.165Z,0.00
2023-03-11T03:40:34.073Z,0.00
2023-03-11T03:41:18.102Z,0.00
2023-03-11T03:41:58.052Z,0.00
2023-03-11T03:42:38.244Z,0.00
2023-03-11T03:43:19.093Z,0.04
2023-03-11T03:43:59.158Z,0.06
2023-03-11T03:44:40.060Z,0.00
2023-03-11T03:45:20.158Z,0.00
2023-03-11T03:46:05.172Z,0.04
2023-03-11T03:46:45.150Z,0.10
2023-03-11T03:47:27.046Z,0.06
2023-03-11T03:48:21.137Z,0.00
2023-03-11T03:49:15.076Z,0.00
2023-03-11T03:50:09.076Z,0.00
2023-03-11T03:51:03.062Z,0.00
2023-03-11T03:51:57.055Z,0.00
2023-03-11T03:52:53.046Z,0.00
2023-03-11T03:53:42.096Z,0.00
2023-03-11T03:54:16.145Z,0.00
2023-03-11T03:55:03.045Z,0.00
2023-03-11T03:55:37.157Z,0.00
2023-03-11T03:56:25.073Z,0.00
2023-03-11T03:56:59.176Z,0.00
2023-03-11T03:57:46.086Z,0.00
2023-03-11T03:58:20.169Z,0.00
2023-03-11T03:59:09.078Z,0.00
2023-03-11T03:59:43.179Z,0.00
2023-03-11T04:00:30.066Z,0.00
2023-03-11T04:01:05.199Z,0.00
2023-03-11T04:01:52.106Z,0.00
2023-03-11T04:02:26.267Z,0.00
2023-03-11T04:03:14.089Z,0.00
2023-03-11T04:03:48.211Z,0.00
2023-03-11T04:04:29.078Z,0.00
2023-03-11T04:05:09.161Z,0.00
2023-03-11T04:05:49.036Z,0.00
2023-03-11T04:06:33.137Z,0.00
2023-03-11T04:07:35.035Z,0.00
2023-03-11T04:08:29.059Z,0.00
2023-03-11T04:09:25.060Z,0.00
2023-03-11T04:10:05.079Z,0.00
2023-03-11T04:10:45.186Z,0.00
2023-03-11T04:11:26.039Z,0.00
2023-03-11T04:12:06.186Z,0.00
2023-03-11T04:12:46.037Z,0.00
2023-03-11T04:13:26.179Z,0.00
2023-03-11T04:14:07.023Z,0.00
2023-03-11T04:14:48.718Z,0.00
2023-03-11T04:15:29.094Z,0.00
2023-03-11T04:16:13.163Z,0.00
2023-03-11T04:16:53.094Z,0.00
2023-03-11T04:17:33.146Z,0.00
2023-03-11T04:18:13.027Z,0.00
2023-03-11T04:18:54.173Z,0.00
2023-03-11T04:19:35.040Z,0.00
2023-03-11T04:20:16.130Z,0.00
2023-03-11T04:20:57.051Z,0.00
2023-03-11T04:21:39.151Z,0.00
2023-03-11T04:22:19.037Z,0.04
2023-03-11T04:22:59.187Z,0.01
2023-03-11T04:23:41.038Z,0.04
2023-03-11T04:24:21.158Z,0.04
2023-03-11T04:25:01.054Z,0.00
2023-03-11T04:25:41.121Z,0.00
2023-03-11T04:26:22.052Z,0.00
2023-03-11T04:27:02.144Z,0.00
2023-03-11T04:27:45.008Z,0.00
2023-03-11T04:28:25.153Z,0.04
2023-03-11T04:29:06.030Z,0.06
2023-03-11T04:29:46.135Z,0.00
2023-03-11T04:30:26.024Z,0.00
2023-03-11T04:31:06.262Z,0.00
2023-03-11T04:31:47.052Z,0.00
2023-03-11T04:32:27.161Z,0.00
2023-03-11T04:33:07.998Z,0.00
2023-03-11T04:33:48.295Z,0.00
2023-03-11T04:34:29.035Z,0.00
2023-03-11T04:35:12.175Z,0.00
2023-03-11T04:35:53.058Z,0.00
2023-03-11T04:36:33.171Z,0.00
2023-03-11T04:37:14.060Z,0.00
2023-03-11T04:37:54.106Z,0.00
2023-03-11T04:38:34.057Z,0.00
2023-03-11T04:39:14.124Z,0.00
2023-03-11T04:39:55.021Z,0.00
2023-03-11T04:40:35.113Z,0.00
2023-03-11T04:41:16.029Z,0.00
2023-03-11T04:41:56.106Z,0.00
2023-03-11T04:42:36.059Z,0.00
2023-03-11T04:43:16.185Z,0.00
2023-03-11T04:43:57.003Z,0.00
2023-03-11T04:44:37.090Z,0.04
2023-03-11T04:45:17.990Z,0.00
2023-03-11T04:45:58.152Z,0.00
2023-03-11T04:46:39.118Z,0.00
2023-03-11T04:47:19.194Z,0.00
2023-03-11T04:48:00.074Z,0.00
2023-03-11T04:48:40.104Z,0.00
2023-03-11T04:49:21.004Z,0.00
2023-03-11T04:50:01.128Z,0.00
2023-03-11T04:50:41.995Z,0.00
2023-03-11T04:51:22.129Z,0.00
2023-03-11T04:52:02.992Z,0.00
2023-03-11T04:52:43.077Z,0.00
2023-03-11T04:53:24.051Z,0.00
2023-03-11T04:54:04.186Z,0.00
2023-03-11T04:54:43.998Z,0.00
2023-03-11T04:55:24.093Z,0.00
2023-03-11T04:56:04.999Z,0.00
2023-03-11T04:56:45.119Z,0.00
2023-03-11T04:57:24.988Z,0.00
2023-03-11T04:58:05.086Z,0.00
2023-03-11T04:58:45.017Z,0.00
2023-03-11T04:59:25.122Z,0.00
2023-03-11T05:00:05.979Z,0.00
2023-03-11T05:00:46.263Z,0.00
2023-03-11T05:01:26.062Z,0.00
2023-03-11T05:02:06.277Z,0.00
2023-03-11T05:02:46.992Z,0.00
2023-03-11T05:03:27.162Z,0.00
2023-03-11T05:04:08.012Z,0.00
2023-03-11T05:04:48.110Z,0.00
2023-03-11T05:05:27.992Z,0.00
2023-03-11T05:06:08.114Z,0.00
2023-03-11T05:06:47.989Z,0.00
2023-03-11T05:07:28.085Z,0.00
2023-03-11T05:08:09.006Z,0.00
2023-03-11T05:08:49.116Z,0.00
2023-03-11T05:09:30.029Z,0.00
2023-03-11T05:10:12.074Z,0.00
2023-03-11T05:10:51.990Z,0.00
2023-03-11T05:11:32.058Z,0.00
2023-03-11T05:12:12.967Z,0.00
2023-03-11T05:12:53.092Z,0.00
2023-03-11T05:13:32.985Z,0.00
2023-03-11T05:14:13.080Z,0.00
2023-03-11T05:14:53.044Z,0.00
2023-03-11T05:15:33.130Z,0.00
2023-03-11T05:16:14.026Z,0.00
2023-03-11T05:16:54.134Z,0.00
2023-03-11T05:17:33.980Z,0.00
2023-03-11T05:18:14.079Z,0.00
2023-03-11T05:18:54.960Z,0.00
2023-03-11T05:19:35.496Z,0.00
2023-03-11T05:20:18.028Z,0.00
2023-03-11T05:20:58.083Z,0.00
2023-03-11T05:21:37.968Z,0.00
2023-03-11T05:22:18.080Z,0.00
2023-03-11T05:22:58.974Z,0.00
2023-03-11T05:23:39.057Z,0.00
2023-03-11T05:24:19.955Z,0.00
2023-03-11T05:25:00.084Z,0.00
2023-03-11T05:25:41.988Z,0.00
2023-03-11T05:26:22.079Z,0.00
2023-03-11T05:27:02.985Z,0.00
2023-03-11T05:27:43.133Z,0.00
2023-03-11T05:28:23.964Z,0.00
2023-03-11T05:29:04.053Z,0.00
2023-03-11T05:29:43.964Z,0.00
2023-03-11T05:30:24.149Z,0.00
2023-03-11T05:31:03.991Z,0.00
2023-03-11T05:31:44.169Z,0.00
2023-03-11T05:32:26.129Z,0.00
2023-03-11T05:33:06.068Z,0.00
2023-03-11T05:33:45.954Z,0.00
2023-03-11T05:34:27.100Z,0.00
2023-03-11T05:35:07.963Z,0.00
2023-03-11T05:35:48.092Z,0.00
2023-03-11T05:36:28.996Z,0.00
2023-03-11T05:37:09.122Z,0.00
2023-03-11T05:37:49.958Z,0.00
2023-03-11T05:38:43.987Z,0.00
2023-03-11T05:39:38.014Z,0.00
2023-03-11T05:40:31.959Z,0.00
2023-03-11T05:41:25.966Z,0.00
2023-03-11T05:42:06.977Z,0.00
2023-03-11T05:42:47.052Z,0.00
2023-03-11T05:43:26.945Z,0.00
2023-03-11T05:44:20.963Z,0.00
2023-03-11T05:45:14.970Z,0.00
2023-03-11T05:46:09.011Z,0.00
2023-03-11T05:47:03.038Z,0.00
2023-03-11T05:47:43.979Z,0.00
2023-03-11T05:48:24.094Z,0.00
2023-03-11T05:49:05.941Z,0.00
2023-03-11T05:49:46.024Z,0.00
2023-03-11T05:50:26.933Z,0.00
2023-03-11T05:51:07.287Z,0.00
2023-03-11T05:51:47.930Z,0.00
2023-03-11T05:52:28.044Z,0.00
2023-03-11T05:53:07.970Z,0.00
2023-03-11T05:53:54.051Z,0.00
2023-03-11T05:54:33.946Z,0.00
2023-03-11T05:55:16.055Z,0.00
2023-03-11T05:56:04.930Z,0.00
2023-03-11T05:56:45.030Z,0.00
2023-03-11T05:57:26.058Z,0.00
2023-03-11T05:58:06.096Z,0.00
2023-03-11T05:58:45.992Z,0.00
2023-03-11T05:59:26.087Z,0.00
2023-03-11T06:00:06.942Z,0.00
2023-03-11T06:00:47.040Z,0.00
2023-03-11T06:01:26.945Z,0.00
2023-03-11T06:02:08.032Z,0.00
2023-03-11T06:02:48.967Z,0.00
2023-03-11T06:03:30.095Z,0.00
2023-03-11T06:04:12.095Z,0.00
2023-03-11T06:04:52.271Z,0.00
2023-03-11T06:05:31.939Z,0.00
2023-03-11T06:06:14.063Z,0.00
2023-03-11T06:06:53.949Z,0.00
2023-03-11T06:07:34.036Z,0.00
2023-03-11T06:08:14.911Z,0.00
2023-03-11T06:08:55.031Z,0.00
2023-03-11T06:09:34.942Z,0.00
2023-03-11T06:10:16.013Z,0.04
2023-03-11T06:10:56.930Z,0.00
2023-03-11T06:11:37.037Z,0.00
2023-03-11T06:12:17.978Z,0.00
2023-03-11T06:12:58.020Z,0.00
2023-03-11T06:13:38.928Z,0.00
2023-03-11T06:14:22.012Z,0.00
2023-03-11T06:15:02.953Z,0.00
2023-03-11T06:15:44.003Z,0.00
2023-03-11T06:16:24.973Z,0.00
2023-03-11T06:17:06.021Z,0.00
2023-03-11T06:17:45.960Z,0.00
2023-03-11T06:18:26.696Z,0.00
2023-03-11T06:19:07.929Z,0.00
2023-03-11T06:19:48.023Z,0.00
2023-03-11T06:20:28.949Z,0.00
2023-03-11T06:21:10.028Z,0.00
2023-03-11T06:21:49.913Z,0.00
2023-03-11T06:22:30.010Z,0.00
2023-03-11T06:23:10.942Z,0.00
2023-03-11T06:23:52.006Z,0.00
2023-03-11T06:24:32.925Z,0.00
2023-03-11T06:25:14.075Z,0.00
2023-03-11T06:26:11.952Z,0.00
2023-03-11T06:26:52.063Z,0.00
2023-03-11T06:27:32.905Z,0.00
2023-03-11T06:28:13.020Z,0.00
2023-03-11T06:28:54.888Z,0.00
2023-03-11T06:29:34.991Z,0.00
2023-03-11T06:30:16.923Z,0.00
2023-03-11T06:30:58.724Z,0.00
2023-03-11T06:31:40.025Z,0.00
2023-03-11T06:32:20.055Z,0.00
2023-03-11T06:33:01.903Z,0.00
2023-03-11T06:33:42.048Z,0.00
2023-03-11T06:34:22.928Z,0.00
2023-03-11T06:35:03.056Z,0.00
2023-03-11T06:35:42.920Z,0.00
2023-03-11T06:36:26.000Z,0.00
2023-03-11T06:37:06.933Z,0.00
2023-03-11T06:37:46.973Z,0.00
2023-03-11T06:38:27.947Z,0.00
2023-03-11T06:39:08.081Z,0.00
2023-03-11T06:39:48.910Z,0.00
2023-03-11T06:40:29.012Z,0.00
2023-03-11T06:41:10.897Z,0.00
2023-03-11T06:41:51.023Z,0.00
2023-03-11T06:42:31.954Z,0.00
2023-03-11T06:43:12.021Z,0.00
2023-03-11T06:43:52.892Z,0.00
2023-03-11T06:44:33.053Z,0.00
2023-03-11T06:45:14.901Z,0.00
2023-03-11T06:45:55.090Z,0.00
2023-03-11T06:46:34.910Z,0.00
2023-03-11T06:47:14.987Z,0.00
2023-03-11T06:47:54.988Z,0.00
2023-03-11T06:48:34.963Z,0.00
2023-03-11T06:49:17.902Z,0.00
2023-03-11T06:50:02.365Z,0.00
2023-03-11T06:50:44.422Z,0.00
2023-03-11T06:51:26.057Z,0.04
2023-03-11T06:52:05.883Z,0.00
2023-03-11T06:52:46.005Z,0.00
2023-03-11T06:53:26.918Z,0.00
2023-03-11T06:54:07.164Z,0.00
2023-03-11T06:54:47.881Z,0.00
2023-03-11T06:55:27.962Z,0.00
2023-03-11T06:56:10.897Z,0.00
2023-03-11T06:56:50.993Z,0.00
2023-03-11T06:57:32.892Z,0.00
2023-03-11T06:58:12.984Z,0.00
2023-03-11T06:58:53.967Z,0.00
2023-03-11T06:59:33.990Z,0.00
2023-03-11T07:00:18.869Z,0.00
2023-03-11T07:00:59.035Z,0.00
2023-03-11T07:01:39.876Z,0.00
2023-03-11T07:02:52.962Z,0.00
2023-03-11T07:03:32.929Z,0.00
2023-03-11T07:04:12.943Z,0.00
2023-03-11T07:04:46.981Z,0.00
2023-03-11T07:05:34.864Z,0.00
2023-03-11T07:06:09.810Z,0.00
2023-03-11T07:06:56.877Z,0.00
2023-03-11T07:07:34.982Z,0.00
2023-03-11T07:08:23.106Z,0.00
2023-03-11T07:08:59.971Z,0.00
2023-03-11T07:09:40.924Z,0.00
2023-03-11T07:10:20.983Z,0.00
2023-03-11T07:11:29.923Z,0.00
2023-03-11T07:12:11.096Z,0.00
2023-03-11T07:12:52.892Z,0.00
2023-03-11T07:13:34.999Z,0.00
2023-03-11T07:14:16.416Z,0.00
2023-03-11T07:15:02.927Z,0.00
2023-03-11T07:15:39.160Z,0.00
2023-03-11T07:16:29.939Z,0.00
2023-03-11T07:17:03.981Z,0.00
2023-03-11T07:17:53.868Z,0.00
2023-03-11T07:18:28.033Z,0.00
2023-03-11T07:19:16.841Z,0.00
2023-03-11T07:19:51.980Z,0.00
2023-03-11T07:20:33.877Z,0.00
2023-03-11T07:21:16.544Z,0.00
2023-03-11T07:21:58.860Z,0.00
2023-03-11T07:22:38.947Z,0.00
2023-03-11T07:23:18.828Z,0.00
2023-03-11T07:24:04.032Z,0.00
2023-03-11T07:24:44.882Z,0.00
2023-03-11T07:25:24.999Z,0.00
2023-03-11T07:26:05.958Z,0.00
2023-03-11T07:26:47.979Z,0.00
2023-03-11T07:27:28.908Z,0.00
2023-03-11T07:28:08.942Z,0.00
2023-03-11T07:28:50.886Z,0.00
2023-03-11T07:29:32.982Z,0.00
2023-03-11T07:30:13.891Z,0.00
2023-03-11T07:30:55.999Z,0.00
2023-03-11T07:31:39.916Z,0.00
2023-03-11T07:32:20.995Z,0.00
2023-03-11T07:33:01.862Z,0.00
2023-03-11T07:33:41.943Z,0.00
2023-03-11T07:34:27.865Z,0.00
2023-03-11T07:35:07.953Z,0.00
2023-03-11T07:35:48.877Z,0.00
2023-03-11T07:36:31.957Z,0.00
2023-03-11T07:37:12.871Z,0.00
2023-03-11T07:37:52.953Z,0.00
2023-03-11T07:38:33.015Z,0.00
2023-03-11T07:39:12.974Z,0.00
2023-03-11T07:39:54.914Z,0.00
2023-03-11T07:40:34.967Z,0.00
2023-03-11T07:41:18.407Z,0.00
2023-03-11T07:41:58.913Z,0.00
2023-03-11T07:42:40.850Z,0.00
2023-03-11T07:43:21.045Z,0.00
2023-03-11T07:44:06.166Z,0.00
2023-03-11T07:45:04.856Z,0.00
2023-03-11T07:45:58.878Z,0.00
2023-03-11T07:46:52.881Z,0.00
2023-03-11T07:47:46.853Z,0.00
2023-03-11T07:48:40.824Z,0.00
2023-03-11T07:49:34.887Z,0.00
2023-03-11T07:50:30.863Z,0.00
2023-03-11T07:51:28.861Z,0.00
2023-03-11T07:52:23.839Z,0.00
2023-03-11T07:53:10.865Z,0.00
2023-03-11T07:53:44.922Z,0.00
2023-03-11T07:54:31.815Z,0.00
2023-03-11T07:55:05.960Z,0.00
2023-03-11T07:55:52.849Z,0.00
2023-03-11T07:56:28.036Z,0.00
2023-03-11T07:57:19.857Z,0.00
2023-03-11T07:57:54.983Z,0.00
2023-03-11T07:58:35.847Z,0.00
2023-03-11T07:59:15.953Z,0.00
2023-03-11T07:59:56.825Z,0.00
2023-03-11T08:00:36.946Z,0.00
2023-03-11T08:01:26.827Z,0.00
2023-03-11T08:02:06.942Z,0.00
2023-03-11T08:02:47.865Z,0.00
2023-03-11T08:03:27.972Z,0.00
2023-03-11T08:04:14.219Z,0.00
2023-03-11T08:04:54.947Z,0.00
2023-03-11T08:05:35.804Z,0.00
2023-03-11T08:06:27.047Z,0.00
2023-03-11T08:07:07.807Z,0.00
2023-03-11T08:07:47.963Z,0.00
2023-03-11T08:08:27.792Z,0.00
2023-03-11T08:09:20.871Z,0.00
2023-03-11T08:10:14.831Z,0.00
2023-03-11T08:11:08.808Z,0.00
2023-03-11T08:12:02.817Z,0.00
2023-03-11T08:12:56.857Z,0.00
2023-03-11T08:13:50.820Z,0.00
2023-03-11T08:14:37.824Z,0.00
2023-03-11T08:15:12.903Z,0.00
2023-03-11T08:15:59.846Z,0.00
2023-03-11T08:16:34.076Z,0.00
2023-03-11T08:17:20.829Z,0.00
2023-03-11T08:17:54.968Z,0.00
2023-03-11T08:18:41.815Z,0.00
2023-03-11T08:19:18.944Z,0.00
2023-03-11T08:19:59.816Z,0.00
2023-03-11T08:20:40.930Z,0.00
2023-03-11T08:21:24.806Z,0.00
2023-03-11T08:22:06.925Z,0.00
2023-03-11T08:22:57.569Z,0.00
2023-03-11T08:23:37.889Z,0.00
2023-03-11T08:24:20.825Z,0.00
2023-03-11T08:25:07.837Z,0.00
2023-03-11T08:26:01.818Z,0.00
2023-03-11T08:26:55.853Z,0.01
2023-03-11T08:27:49.791Z,0.00
2023-03-11T08:28:43.800Z,0.00
2023-03-11T08:29:38.806Z,0.00
2023-03-11T08:30:25.835Z,0.00
2023-03-11T08:30:59.948Z,0.00
2023-03-11T08:31:46.779Z,0.00
2023-03-11T08:32:20.949Z,0.00
2023-03-11T08:33:07.763Z,0.00
2023-03-11T08:33:41.885Z,0.00
2023-03-11T08:34:29.763Z,0.00
2023-03-11T08:35:04.927Z,0.00
2023-03-11T08:35:45.825Z,0.00
2023-03-11T08:36:27.860Z,0.00
2023-03-11T08:37:08.779Z,0.00
2023-03-11T08:37:48.868Z,0.00
2023-03-11T08:38:28.822Z,0.00
2023-03-11T08:39:12.060Z,0.00
2023-03-11T08:39:52.817Z,0.00
2023-03-11T08:40:32.880Z,0.00
2023-03-11T08:41:13.821Z,0.00
2023-03-11T08:41:53.908Z,0.00
2023-03-11T08:42:37.051Z,0.00
2023-03-11T08:43:21.905Z,0.00
2023-03-11T08:44:02.796Z,0.00
2023-03-11T08:44:57.823Z,0.00
2023-03-11T08:45:54.802Z,0.00
2023-03-11T08:46:39.817Z,0.00
2023-03-11T08:47:19.868Z,0.00
2023-03-11T08:48:00.747Z,0.00
2023-03-11T08:48:42.894Z,0.00
2023-03-11T08:49:23.772Z,0.00
2023-03-11T08:50:03.914Z,0.00
2023-03-11T08:50:53.982Z,0.00
2023-03-11T08:51:37.928Z,0.00
2023-03-11T08:52:18.841Z,0.00
2023-03-11T08:53:00.606Z,0.00
2023-03-11T08:53:41.793Z,0.00
2023-03-11T08:54:21.879Z,0.00
2023-03-11T08:55:02.801Z,0.00
2023-03-11T08:55:42.888Z,0.00
2023-03-11T08:56:23.750Z,0.00
2023-03-11T08:57:04.743Z,0.00
2023-03-11T08:57:45.799Z,0.00
2023-03-11T08:58:26.960Z,0.00
2023-03-11T08:59:07.779Z,0.00
2023-03-11T08:59:47.928Z,0.00
2023-03-11T09:00:29.842Z,0.00
2023-03-11T09:01:10.934Z,0.00
2023-03-11T09:01:51.758Z,0.00
2023-03-11T09:02:32.860Z,0.00
2023-03-11T09:03:12.822Z,0.00
2023-03-11T09:03:52.943Z,0.00
2023-03-11T09:04:34.760Z,0.00
2023-03-11T09:05:15.992Z,0.00
2023-03-11T09:06:03.111Z,0.00
2023-03-11T09:06:43.944Z,0.00
2023-03-11T09:07:24.942Z,0.00
2023-03-11T09:08:05.940Z,0.00
2023-03-11T09:08:46.849Z,0.00
2023-03-11T09:09:26.890Z,0.00
2023-03-11T09:10:13.839Z,0.00
2023-03-11T09:10:54.037Z,0.00
2023-03-11T09:11:34.829Z,0.00
2023-03-11T09:12:17.116Z,0.00
2023-03-11T09:12:57.900Z,0.00
2023-03-11T09:13:40.975Z,0.00
2023-03-11T09:14:21.894Z,0.00
2023-03-11T09:15:02.045Z,0.00
2023-03-11T09:15:45.874Z,0.00
2023-03-11T09:17:15.115Z,0.00
2023-03-11T09:18:00.824Z,0.00
2023-03-11T09:19:12.952Z,0.00
2023-03-11T09:19:53.963Z,0.00
2023-03-11T09:20:36.918Z,0.00
2023-03-11T09:21:17.837Z,0.00
2023-03-11T09:21:57.957Z,0.00
2023-03-11T09:22:38.854Z,0.00
2023-03-11T09:23:23.017Z,0.00
2023-03-11T09:24:07.864Z,0.00
2023-03-11T09:24:48.026Z,0.00
2023-03-11T09:25:35.767Z,0.00
2023-03-11T09:26:18.110Z,0.00
2023-03-11T09:26:58.747Z,0.00
2023-03-11T09:27:38.875Z,0.00
2023-03-11T09:28:22.830Z,0.00
2023-03-11T09:29:03.017Z,0.00
2023-03-11T09:29:43.846Z,0.00
2023-03-11T09:30:24.967Z,0.00